sensor_id;sensor_type;location;lat;lon;timestamp;temperature;humidity
22787;DHT22;63134;52.020;4.714;2023-07-08T00:00:11;20.70;57.50
22787;DHT22;63134;52.020;4.714;2023-07-08T00:03:00;20.70;57.50
22787;DHT22;63134;52.020;4.714;2023-07-08T00:05:52;20.60;57.70
22787;DHT22;63134;52.020;4.714;2023-07-08T00:08:38;20.50;57.90
22787;DHT22;63134;52.020;4.714;2023-07-08T00:11:25;20.50;58.20
22787;DHT22;63134;52.020;4.714;2023-07-08T00:14:12;20.40;58.30
22787;DHT22;63134;52.020;4.714;2023-07-08T00:16:57;20.40;58.50
22787;DHT22;63134;52.020;4.714;2023-07-08T00:19:43;20.40;58.80
22787;DHT22;63134;52.020;4.714;2023-07-08T00:22:29;20.40;59.00
22787;DHT22;63134;52.020;4.714;2023-07-08T00:25:17;20.30;59.10
22787;DHT22;63134;52.020;4.714;2023-07-08T00:28:12;20.30;59.20
22787;DHT22;63134;52.020;4.714;2023-07-08T00:31:00;20.20;59.10
22787;DHT22;63134;52.020;4.714;2023-07-08T00:33:46;20.20;59.50
22787;DHT22;63134;52.020;4.714;2023-07-08T00:36:32;20.10;59.50
22787;DHT22;63134;52.020;4.714;2023-07-08T00:39:17;20.10;59.60
22787;DHT22;63134;52.020;4.714;2023-07-08T00:42:24;20.00;59.70
22787;DHT22;63134;52.020;4.714;2023-07-08T00:45:41;20.00;60.20
22787;DHT22;63134;52.020;4.714;2023-07-08T00:48:48;19.90;60.50
22787;DHT22;63134;52.020;4.714;2023-07-08T00:51:37;19.80;61.70
22787;DHT22;63134;52.020;4.714;2023-07-08T00:54:27;19.80;61.50
22787;DHT22;63134;52.020;4.714;2023-07-08T00:57:12;19.70;61.70
22787;DHT22;63134;52.020;4.714;2023-07-08T01:00:04;19.70;62.10
22787;DHT22;63134;52.020;4.714;2023-07-08T01:02:55;19.70;62.40
22787;DHT22;63134;52.020;4.714;2023-07-08T01:05:43;19.70;62.50
22787;DHT22;63134;52.020;4.714;2023-07-08T01:08:30;19.70;62.50
22787;DHT22;63134;52.020;4.714;2023-07-08T01:11:16;19.70;62.40
22787;DHT22;63134;52.020;4.714;2023-07-08T01:14:06;19.60;62.10
22787;DHT22;63134;52.020;4.714;2023-07-08T01:16:53;19.60;62.20
22787;DHT22;63134;52.020;4.714;2023-07-08T01:19:40;19.60;62.20
22787;DHT22;63134;52.020;4.714;2023-07-08T01:22:26;19.60;62.20
22787;DHT22;63134;52.020;4.714;2023-07-08T01:25:20;19.60;62.20
22787;DHT22;63134;52.020;4.714;2023-07-08T01:28:06;19.60;62.20
22787;DHT22;63134;52.020;4.714;2023-07-08T01:30:52;19.60;62.20
22787;DHT22;63134;52.020;4.714;2023-07-08T01:33:39;19.50;62.40
22787;DHT22;63134;52.020;4.714;2023-07-08T01:36:31;19.60;62.70
22787;DHT22;63134;52.020;4.714;2023-07-08T01:39:21;19.50;62.60
22787;DHT22;63134;52.020;4.714;2023-07-08T01:42:14;19.50;62.50
22787;DHT22;63134;52.020;4.714;2023-07-08T01:45:12;19.50;62.70
22787;DHT22;63134;52.020;4.714;2023-07-08T01:48:11;19.40;62.60
22787;DHT22;63134;52.020;4.714;2023-07-08T01:50:59;19.40;62.80
22787;DHT22;63134;52.020;4.714;2023-07-08T01:53:47;19.40;63.00
22787;DHT22;63134;52.020;4.714;2023-07-08T01:56:34;19.30;62.90
22787;DHT22;63134;52.020;4.714;2023-07-08T01:59:22;19.30;63.10
22787;DHT22;63134;52.020;4.714;2023-07-08T02:02:10;19.20;64.00
22787;DHT22;63134;52.020;4.714;2023-07-08T02:04:55;19.20;63.20
22787;DHT22;63134;52.020;4.714;2023-07-08T02:07:41;19.20;63.30
22787;DHT22;63134;52.020;4.714;2023-07-08T02:10:27;19.10;63.50
22787;DHT22;63134;52.020;4.714;2023-07-08T02:13:13;19.10;63.60
22787;DHT22;63134;52.020;4.714;2023-07-08T02:15:59;19.10;63.60
22787;DHT22;63134;52.020;4.714;2023-07-08T02:18:44;19.00;63.70
22787;DHT22;63134;52.020;4.714;2023-07-08T02:21:31;19.00;63.70
22787;DHT22;63134;52.020;4.714;2023-07-08T02:24:16;19.00;63.60
22787;DHT22;63134;52.020;4.714;2023-07-08T02:27:02;19.00;63.90
22787;DHT22;63134;52.020;4.714;2023-07-08T02:29:48;18.90;63.80
22787;DHT22;63134;52.020;4.714;2023-07-08T02:32:34;18.90;64.10
22787;DHT22;63134;52.020;4.714;2023-07-08T02:35:21;18.90;64.30
22787;DHT22;63134;52.020;4.714;2023-07-08T02:38:06;18.80;64.80
22787;DHT22;63134;52.020;4.714;2023-07-08T02:40:55;18.80;64.90
22787;DHT22;63134;52.020;4.714;2023-07-08T02:43:42;18.80;65.30
22787;DHT22;63134;52.020;4.714;2023-07-08T02:46:27;18.80;65.30
22787;DHT22;63134;52.020;4.714;2023-07-08T02:49:13;18.70;65.40
22787;DHT22;63134;52.020;4.714;2023-07-08T02:51:59;18.60;65.60
22787;DHT22;63134;52.020;4.714;2023-07-08T02:54:44;18.60;65.80
22787;DHT22;63134;52.020;4.714;2023-07-08T02:57:30;18.60;65.90
22787;DHT22;63134;52.020;4.714;2023-07-08T03:00:15;18.60;66.00
22787;DHT22;63134;52.020;4.714;2023-07-08T03:03:01;18.50;65.90
22787;DHT22;63134;52.020;4.714;2023-07-08T03:06:00;18.50;66.20
22787;DHT22;63134;52.020;4.714;2023-07-08T03:08:48;18.50;66.10
22787;DHT22;63134;52.020;4.714;2023-07-08T03:11:34;18.40;66.40
22787;DHT22;63134;52.020;4.714;2023-07-08T03:14:23;18.40;66.50
22787;DHT22;63134;52.020;4.714;2023-07-08T03:17:09;18.40;66.70
22787;DHT22;63134;52.020;4.714;2023-07-08T03:19:55;18.40;66.70
22787;DHT22;63134;52.020;4.714;2023-07-08T03:22:41;18.40;66.90
22787;DHT22;63134;52.020;4.714;2023-07-08T03:25:26;18.40;66.90
22787;DHT22;63134;52.020;4.714;2023-07-08T03:28:19;18.40;67.00
22787;DHT22;63134;52.020;4.714;2023-07-08T03:31:08;18.40;66.90
22787;DHT22;63134;52.020;4.714;2023-07-08T03:33:57;18.40;66.90
22787;DHT22;63134;52.020;4.714;2023-07-08T03:36:46;18.30;66.70
22787;DHT22;63134;52.020;4.714;2023-07-08T03:39:35;18.30;66.70
22787;DHT22;63134;52.020;4.714;2023-07-08T03:42:24;18.30;66.70
22787;DHT22;63134;52.020;4.714;2023-07-08T03:45:10;18.30;66.90
22787;DHT22;63134;52.020;4.714;2023-07-08T03:47:58;18.30;67.10
22787;DHT22;63134;52.020;4.714;2023-07-08T03:50:44;18.20;67.90
22787;DHT22;63134;52.020;4.714;2023-07-08T03:53:30;18.30;67.20
22787;DHT22;63134;52.020;4.714;2023-07-08T03:56:16;18.30;67.20
22787;DHT22;63134;52.020;4.714;2023-07-08T03:59:01;18.20;67.30
22787;DHT22;63134;52.020;4.714;2023-07-08T04:01:49;18.30;67.30
22787;DHT22;63134;52.020;4.714;2023-07-08T04:04:35;18.20;67.30
22787;DHT22;63134;52.020;4.714;2023-07-08T04:07:20;18.20;67.20
22787;DHT22;63134;52.020;4.714;2023-07-08T04:10:10;18.20;67.60
22787;DHT22;63134;52.020;4.714;2023-07-08T04:13:16;18.30;67.30
22787;DHT22;63134;52.020;4.714;2023-07-08T04:16:04;18.20;67.20
22787;DHT22;63134;52.020;4.714;2023-07-08T04:18:50;18.30;67.30
22787;DHT22;63134;52.020;4.714;2023-07-08T04:21:38;18.30;67.50
22787;DHT22;63134;52.020;4.714;2023-07-08T04:24:25;18.30;67.30
22787;DHT22;63134;52.020;4.714;2023-07-08T04:27:14;18.30;67.40
22787;DHT22;63134;52.020;4.714;2023-07-08T04:30:00;18.30;67.50
22787;DHT22;63134;52.020;4.714;2023-07-08T04:32:46;18.30;67.50
22787;DHT22;63134;52.020;4.714;2023-07-08T04:35:32;18.40;67.50
22787;DHT22;63134;52.020;4.714;2023-07-08T04:38:22;18.40;67.60
22787;DHT22;63134;52.020;4.714;2023-07-08T04:41:08;18.50;67.70
22787;DHT22;63134;52.020;4.714;2023-07-08T04:43:53;18.50;67.70
22787;DHT22;63134;52.020;4.714;2023-07-08T04:46:49;18.50;67.70
22787;DHT22;63134;52.020;4.714;2023-07-08T04:49:36;18.50;67.70
22787;DHT22;63134;52.020;4.714;2023-07-08T04:52:25;18.60;67.80
22787;DHT22;63134;52.020;4.714;2023-07-08T04:55:13;18.60;67.80
22787;DHT22;63134;52.020;4.714;2023-07-08T04:57:58;18.70;67.90
22787;DHT22;63134;52.020;4.714;2023-07-08T05:00:44;18.70;67.80
22787;DHT22;63134;52.020;4.714;2023-07-08T05:03:30;18.70;67.60
22787;DHT22;63134;52.020;4.714;2023-07-08T05:06:18;18.80;67.70
22787;DHT22;63134;52.020;4.714;2023-07-08T05:09:05;18.80;67.50
22787;DHT22;63134;52.020;4.714;2023-07-08T05:11:52;18.80;67.60
22787;DHT22;63134;52.020;4.714;2023-07-08T05:14:38;18.90;67.50
22787;DHT22;63134;52.020;4.714;2023-07-08T05:17:23;19.00;67.50
22787;DHT22;63134;52.020;4.714;2023-07-08T05:20:13;19.00;67.40
22787;DHT22;63134;52.020;4.714;2023-07-08T05:22:58;19.00;67.30
22787;DHT22;63134;52.020;4.714;2023-07-08T05:25:44;19.10;67.30
22787;DHT22;63134;52.020;4.714;2023-07-08T05:28:30;19.10;67.30
22787;DHT22;63134;52.020;4.714;2023-07-08T05:31:17;19.20;67.30
22787;DHT22;63134;52.020;4.714;2023-07-08T05:34:02;19.20;67.30
22787;DHT22;63134;52.020;4.714;2023-07-08T05:36:48;19.30;67.10
22787;DHT22;63134;52.020;4.714;2023-07-08T05:39:33;19.30;67.10
22787;DHT22;63134;52.020;4.714;2023-07-08T05:42:22;19.30;67.00
22787;DHT22;63134;52.020;4.714;2023-07-08T05:45:08;19.40;67.00
22787;DHT22;63134;52.020;4.714;2023-07-08T05:47:55;19.50;67.10
22787;DHT22;63134;52.020;4.714;2023-07-08T05:50:41;19.50;66.90
22787;DHT22;63134;52.020;4.714;2023-07-08T05:53:29;19.60;67.00
22787;DHT22;63134;52.020;4.714;2023-07-08T05:56:16;19.60;66.80
22787;DHT22;63134;52.020;4.714;2023-07-08T05:59:03;19.70;66.90
22787;DHT22;63134;52.020;4.714;2023-07-08T06:02:14;19.70;66.80
22787;DHT22;63134;52.020;4.714;2023-07-08T06:05:00;19.80;66.90
22787;DHT22;63134;52.020;4.714;2023-07-08T06:07:45;19.80;66.90
22787;DHT22;63134;52.020;4.714;2023-07-08T06:10:31;19.90;66.80
22787;DHT22;63134;52.020;4.714;2023-07-08T06:13:16;20.00;66.80
22787;DHT22;63134;52.020;4.714;2023-07-08T06:16:02;20.10;66.80
22787;DHT22;63134;52.020;4.714;2023-07-08T06:18:50;20.10;66.60
22787;DHT22;63134;52.020;4.714;2023-07-08T06:21:38;20.20;66.40
22787;DHT22;63134;52.020;4.714;2023-07-08T06:24:24;20.30;66.40
22787;DHT22;63134;52.020;4.714;2023-07-08T06:27:10;20.40;66.40
22787;DHT22;63134;52.020;4.714;2023-07-08T06:29:55;20.40;66.20
22787;DHT22;63134;52.020;4.714;2023-07-08T06:32:41;20.50;66.20
22787;DHT22;63134;52.020;4.714;2023-07-08T06:35:27;20.60;66.10
22787;DHT22;63134;52.020;4.714;2023-07-08T06:38:13;20.60;66.00
22787;DHT22;63134;52.020;4.714;2023-07-08T06:40:58;20.70;65.90
22787;DHT22;63134;52.020;4.714;2023-07-08T06:43:44;20.80;65.90
22787;DHT22;63134;52.020;4.714;2023-07-08T06:46:45;20.90;65.90
22787;DHT22;63134;52.020;4.714;2023-07-08T06:49:31;20.90;65.80
22787;DHT22;63134;52.020;4.714;2023-07-08T06:52:16;21.00;65.90
22787;DHT22;63134;52.020;4.714;2023-07-08T06:55:10;21.10;66.00
22787;DHT22;63134;52.020;4.714;2023-07-08T06:57:56;21.10;65.90
22787;DHT22;63134;52.020;4.714;2023-07-08T07:00:44;21.20;66.60
22787;DHT22;63134;52.020;4.714;2023-07-08T07:03:30;21.30;66.00
22787;DHT22;63134;52.020;4.714;2023-07-08T07:06:16;21.40;66.00
22787;DHT22;63134;52.020;4.714;2023-07-08T07:09:02;21.50;65.70
22787;DHT22;63134;52.020;4.714;2023-07-08T07:11:49;21.60;65.30
22787;DHT22;63134;52.020;4.714;2023-07-08T07:14:34;21.70;65.90
22787;DHT22;63134;52.020;4.714;2023-07-08T07:17:24;21.70;64.80
22787;DHT22;63134;52.020;4.714;2023-07-08T07:20:11;21.80;64.70
22787;DHT22;63134;52.020;4.714;2023-07-08T07:22:57;21.90;64.50
22787;DHT22;63134;52.020;4.714;2023-07-08T07:25:43;22.00;64.40
22787;DHT22;63134;52.020;4.714;2023-07-08T07:28:29;22.00;64.30
22787;DHT22;63134;52.020;4.714;2023-07-08T07:31:15;22.10;64.00
22787;DHT22;63134;52.020;4.714;2023-07-08T07:34:01;22.20;63.80
22787;DHT22;63134;52.020;4.714;2023-07-08T07:36:47;22.20;63.70
22787;DHT22;63134;52.020;4.714;2023-07-08T07:39:33;22.30;63.50
22787;DHT22;63134;52.020;4.714;2023-07-08T07:42:19;22.30;63.30
22787;DHT22;63134;52.020;4.714;2023-07-08T07:45:05;22.50;63.30
22787;DHT22;63134;52.020;4.714;2023-07-08T07:47:51;22.50;63.20
22787;DHT22;63134;52.020;4.714;2023-07-08T07:50:37;22.60;63.00
22787;DHT22;63134;52.020;4.714;2023-07-08T07:53:23;22.60;62.80
22787;DHT22;63134;52.020;4.714;2023-07-08T07:56:09;22.70;62.80
22787;DHT22;63134;52.020;4.714;2023-07-08T07:58:54;22.80;62.70
22787;DHT22;63134;52.020;4.714;2023-07-08T08:01:40;22.80;62.50
22787;DHT22;63134;52.020;4.714;2023-07-08T08:04:27;22.90;62.40
22787;DHT22;63134;52.020;4.714;2023-07-08T08:07:38;23.00;62.40
22787;DHT22;63134;52.020;4.714;2023-07-08T08:10:26;23.10;62.20
22787;DHT22;63134;52.020;4.714;2023-07-08T08:13:11;23.20;62.10
22787;DHT22;63134;52.020;4.714;2023-07-08T08:15:58;23.20;62.00
22787;DHT22;63134;52.020;4.714;2023-07-08T08:18:45;23.30;61.90
22787;DHT22;63134;52.020;4.714;2023-07-08T08:21:31;23.40;61.70
22787;DHT22;63134;52.020;4.714;2023-07-08T08:24:16;23.50;61.50
22787;DHT22;63134;52.020;4.714;2023-07-08T08:27:02;23.70;61.40
22787;DHT22;63134;52.020;4.714;2023-07-08T08:29:47;23.70;61.00
22787;DHT22;63134;52.020;4.714;2023-07-08T08:32:33;23.80;60.80
22787;DHT22;63134;52.020;4.714;2023-07-08T08:35:19;23.90;60.60
22787;DHT22;63134;52.020;4.714;2023-07-08T08:38:05;24.00;60.60
22787;DHT22;63134;52.020;4.714;2023-07-08T08:40:51;24.10;60.20
22787;DHT22;63134;52.020;4.714;2023-07-08T08:43:38;24.10;60.10
22787;DHT22;63134;52.020;4.714;2023-07-08T08:46:45;24.20;60.00
22787;DHT22;63134;52.020;4.714;2023-07-08T08:49:53;24.30;59.90
22787;DHT22;63134;52.020;4.714;2023-07-08T08:52:41;24.40;59.50
22787;DHT22;63134;52.020;4.714;2023-07-08T08:55:27;24.50;59.10
22787;DHT22;63134;52.020;4.714;2023-07-08T09:01:18;24.70;58.90
22787;DHT22;63134;52.020;4.714;2023-07-08T09:04:10;24.80;58.80
22787;DHT22;63134;52.020;4.714;2023-07-08T09:07:06;24.90;58.60
22787;DHT22;63134;52.020;4.714;2023-07-08T09:10:08;24.90;58.50
22787;DHT22;63134;52.020;4.714;2023-07-08T09:12:57;25.00;58.10
22787;DHT22;63134;52.020;4.714;2023-07-08T09:15:43;25.10;57.90
22787;DHT22;63134;52.020;4.714;2023-07-08T09:18:55;25.20;57.80
22787;DHT22;63134;52.020;4.714;2023-07-08T09:21:51;25.30;57.70
22787;DHT22;63134;52.020;4.714;2023-07-08T09:24:44;25.40;57.60
22787;DHT22;63134;52.020;4.714;2023-07-08T09:27:33;25.50;57.60
22787;DHT22;63134;52.020;4.714;2023-07-08T09:30:21;25.50;58.10
22787;DHT22;63134;52.020;4.714;2023-07-08T09:33:08;25.60;57.40
22787;DHT22;63134;52.020;4.714;2023-07-08T09:35:54;25.80;57.40
22787;DHT22;63134;52.020;4.714;2023-07-08T09:38:40;25.90;57.10
22787;DHT22;63134;52.020;4.714;2023-07-08T09:41:30;26.00;57.00
22787;DHT22;63134;52.020;4.714;2023-07-08T09:44:25;26.20;56.70
22787;DHT22;63134;52.020;4.714;2023-07-08T09:47:25;26.20;56.30
22787;DHT22;63134;52.020;4.714;2023-07-08T09:50:26;26.40;56.10
22787;DHT22;63134;52.020;4.714;2023-07-08T09:53:13;26.50;56.50
22787;DHT22;63134;52.020;4.714;2023-07-08T09:56:00;26.60;55.60
22787;DHT22;63134;52.020;4.714;2023-07-08T09:58:48;26.70;55.60
22787;DHT22;63134;52.020;4.714;2023-07-08T10:01:34;26.70;55.40
22787;DHT22;63134;52.020;4.714;2023-07-08T10:04:21;26.80;55.30
22787;DHT22;63134;52.020;4.714;2023-07-08T10:07:16;26.90;55.20
22787;DHT22;63134;52.020;4.714;2023-07-08T10:10:06;27.00;55.20
22787;DHT22;63134;52.020;4.714;2023-07-08T10:12:59;27.10;54.90
22787;DHT22;63134;52.020;4.714;2023-07-08T10:15:55;27.30;54.60
22787;DHT22;63134;52.020;4.714;2023-07-08T10:18:41;27.40;54.40
22787;DHT22;63134;52.020;4.714;2023-07-08T10:21:36;27.50;54.10
22787;DHT22;63134;52.020;4.714;2023-07-08T10:28:01;27.70;54.00
22787;DHT22;63134;52.020;4.714;2023-07-08T10:31:10;27.80;53.80
22787;DHT22;63134;52.020;4.714;2023-07-08T10:37:47;28.10;53.20
22787;DHT22;63134;52.020;4.714;2023-07-08T10:40:36;28.20;52.90
22787;DHT22;63134;52.020;4.714;2023-07-08T10:47:10;28.40;52.70
22787;DHT22;63134;52.020;4.714;2023-07-08T10:56:36;28.80;52.00
22787;DHT22;63134;52.020;4.714;2023-07-08T11:08:22;29.50;50.60
22787;DHT22;63134;52.020;4.714;2023-07-08T11:11:33;29.80;49.20
22787;DHT22;63134;52.020;4.714;2023-07-08T11:20:18;30.60;48.50
22787;DHT22;63134;52.020;4.714;2023-07-08T11:23:22;30.90;47.50
22787;DHT22;63134;52.020;4.714;2023-07-08T11:26:42;31.30;47.20
22787;DHT22;63134;52.020;4.714;2023-07-08T11:29:42;31.80;46.40
22787;DHT22;63134;52.020;4.714;2023-07-08T11:32:33;32.40;44.90
22787;DHT22;63134;52.020;4.714;2023-07-08T11:35:44;32.90;43.70
22787;DHT22;63134;52.020;4.714;2023-07-08T11:38:32;33.50;43.20
22787;DHT22;63134;52.020;4.714;2023-07-08T11:41:21;34.30;42.10
22787;DHT22;63134;52.020;4.714;2023-07-08T11:44:11;34.90;40.90
22787;DHT22;63134;52.020;4.714;2023-07-08T11:47:00;35.70;40.40
22787;DHT22;63134;52.020;4.714;2023-07-08T11:49:47;36.50;39.40
22787;DHT22;63134;52.020;4.714;2023-07-08T11:52:36;37.30;38.50
22787;DHT22;63134;52.020;4.714;2023-07-08T11:55:44;38.00;36.90
22787;DHT22;63134;52.020;4.714;2023-07-08T12:01:39;39.60;34.60
22787;DHT22;63134;52.020;4.714;2023-07-08T12:04:30;40.30;33.50
22787;DHT22;63134;52.020;4.714;2023-07-08T12:07:20;40.70;32.80
22787;DHT22;63134;52.020;4.714;2023-07-08T12:10:17;41.40;31.30
22787;DHT22;63134;52.020;4.714;2023-07-08T12:13:13;42.20;30.80
22787;DHT22;63134;52.020;4.714;2023-07-08T12:15:59;43.00;30.00
22787;DHT22;63134;52.020;4.714;2023-07-08T12:18:46;43.80;28.60
22787;DHT22;63134;52.020;4.714;2023-07-08T12:21:36;44.30;28.10
22787;DHT22;63134;52.020;4.714;2023-07-08T12:24:22;44.90;27.70
22787;DHT22;63134;52.020;4.714;2023-07-08T12:27:12;45.60;26.90
22787;DHT22;63134;52.020;4.714;2023-07-08T12:29:58;46.20;26.40
22787;DHT22;63134;52.020;4.714;2023-07-08T12:32:44;46.60;26.00
22787;DHT22;63134;52.020;4.714;2023-07-08T12:35:33;47.40;25.50
22787;DHT22;63134;52.020;4.714;2023-07-08T12:38:26;47.90;25.10
22787;DHT22;63134;52.020;4.714;2023-07-08T12:41:22;48.30;24.60
22787;DHT22;63134;52.020;4.714;2023-07-08T12:44:21;48.90;24.40
22787;DHT22;63134;52.020;4.714;2023-07-08T12:47:08;49.50;23.90
22787;DHT22;63134;52.020;4.714;2023-07-08T12:49:54;49.90;23.60
22787;DHT22;63134;52.020;4.714;2023-07-08T12:52:40;50.30;23.40
22787;DHT22;63134;52.020;4.714;2023-07-08T12:55:27;50.80;22.90
22787;DHT22;63134;52.020;4.714;2023-07-08T12:58:16;51.30;22.20
22787;DHT22;63134;52.020;4.714;2023-07-08T13:01:06;51.50;21.90
22787;DHT22;63134;52.020;4.714;2023-07-08T13:04:12;52.00;21.70
22787;DHT22;63134;52.020;4.714;2023-07-08T13:07:00;52.30;21.20
22787;DHT22;63134;52.020;4.714;2023-07-08T13:09:46;52.60;21.00
22787;DHT22;63134;52.020;4.714;2023-07-08T13:12:35;52.90;20.80
22787;DHT22;63134;52.020;4.714;2023-07-08T13:15:28;53.00;20.10
22787;DHT22;63134;52.020;4.714;2023-07-08T13:18:20;52.90;20.00
22787;DHT22;63134;52.020;4.714;2023-07-08T13:21:14;53.00;19.90
22787;DHT22;63134;52.020;4.714;2023-07-08T13:24:06;53.40;19.40
22787;DHT22;63134;52.020;4.714;2023-07-08T13:26:52;53.30;18.90
22787;DHT22;63134;52.020;4.714;2023-07-08T13:29:38;53.60;18.80
22787;DHT22;63134;52.020;4.714;2023-07-08T13:32:31;54.00;18.50
22787;DHT22;63134;52.020;4.714;2023-07-08T13:35:34;53.80;18.30
22787;DHT22;63134;52.020;4.714;2023-07-08T13:38:24;53.80;18.40
22787;DHT22;63134;52.020;4.714;2023-07-08T13:41:10;54.10;18.50
22787;DHT22;63134;52.020;4.714;2023-07-08T13:44:06;54.70;18.30
22787;DHT22;63134;52.020;4.714;2023-07-08T13:46:55;54.90;18.10
22787;DHT22;63134;52.020;4.714;2023-07-08T13:49:45;54.80;17.80
22787;DHT22;63134;52.020;4.714;2023-07-08T13:52:31;54.50;17.50
22787;DHT22;63134;52.020;4.714;2023-07-08T13:55:18;54.10;17.70
22787;DHT22;63134;52.020;4.714;2023-07-08T13:58:17;54.30;17.50
22787;DHT22;63134;52.020;4.714;2023-07-08T14:01:11;54.20;17.40
22787;DHT22;63134;52.020;4.714;2023-07-08T14:04:01;54.20;17.60
22787;DHT22;63134;52.020;4.714;2023-07-08T14:06:48;54.50;17.50
22787;DHT22;63134;52.020;4.714;2023-07-08T14:09:33;53.90;17.40
22787;DHT22;63134;52.020;4.714;2023-07-08T14:12:19;53.50;17.50
22787;DHT22;63134;52.020;4.714;2023-07-08T14:15:09;53.00;17.80
22787;DHT22;63134;52.020;4.714;2023-07-08T14:17:57;52.80;18.10
22787;DHT22;63134;52.020;4.714;2023-07-08T14:20:45;52.90;18.00
22787;DHT22;63134;52.020;4.714;2023-07-08T14:23:31;53.40;17.80
22787;DHT22;63134;52.020;4.714;2023-07-08T14:26:16;53.80;17.40
22787;DHT22;63134;52.020;4.714;2023-07-08T14:29:02;54.10;17.40
22787;DHT22;63134;52.020;4.714;2023-07-08T14:31:48;53.10;17.20
22787;DHT22;63134;52.020;4.714;2023-07-08T14:34:34;52.00;17.80
22787;DHT22;63134;52.020;4.714;2023-07-08T14:37:21;52.70;18.00
22787;DHT22;63134;52.020;4.714;2023-07-08T14:40:26;54.10;17.60
22787;DHT22;63134;52.020;4.714;2023-07-08T14:43:27;55.30;17.20
22787;DHT22;63134;52.020;4.714;2023-07-08T14:46:13;56.10;16.90
22787;DHT22;63134;52.020;4.714;2023-07-08T14:48:58;56.60;16.70
22787;DHT22;63134;52.020;4.714;2023-07-08T14:51:44;56.90;16.40
22787;DHT22;63134;52.020;4.714;2023-07-08T14:54:30;56.40;16.40
22787;DHT22;63134;52.020;4.714;2023-07-08T14:57:16;55.10;16.50
22787;DHT22;63134;52.020;4.714;2023-07-08T15:00:16;53.70;17.10
22787;DHT22;63134;52.020;4.714;2023-07-08T15:03:02;53.90;17.30
22787;DHT22;63134;52.020;4.714;2023-07-08T15:05:49;54.40;16.90
22787;DHT22;63134;52.020;4.714;2023-07-08T15:08:34;54.60;16.60
22787;DHT22;63134;52.020;4.714;2023-07-08T15:11:20;54.50;16.70
22787;DHT22;63134;52.020;4.714;2023-07-08T15:14:24;54.90;16.50
22787;DHT22;63134;52.020;4.714;2023-07-08T15:17:17;53.50;16.60
22787;DHT22;63134;52.020;4.714;2023-07-08T15:20:11;52.00;17.20
22787;DHT22;63134;52.020;4.714;2023-07-08T15:23:00;50.70;17.90
22787;DHT22;63134;52.020;4.714;2023-07-08T15:25:49;49.70;18.40
22787;DHT22;63134;52.020;4.714;2023-07-08T15:31:34;47.60;19.50
22787;DHT22;63134;52.020;4.714;2023-07-08T15:34:21;46.60;20.00
22787;DHT22;63134;52.020;4.714;2023-07-08T15:37:08;45.80;20.50
22787;DHT22;63134;52.020;4.714;2023-07-08T15:39:54;45.30;21.00
22787;DHT22;63134;52.020;4.714;2023-07-08T15:42:40;44.80;21.80
22787;DHT22;63134;52.020;4.714;2023-07-08T15:45:33;44.50;21.60
22787;DHT22;63134;52.020;4.714;2023-07-08T15:48:19;44.40;21.80
22787;DHT22;63134;52.020;4.714;2023-07-08T15:51:04;44.60;21.80
22787;DHT22;63134;52.020;4.714;2023-07-08T15:53:53;44.60;21.90
22787;DHT22;63134;52.020;4.714;2023-07-08T15:56:42;44.30;21.90
22787;DHT22;63134;52.020;4.714;2023-07-08T15:59:28;43.90;22.30
22787;DHT22;63134;52.020;4.714;2023-07-08T16:02:27;43.40;22.50
22787;DHT22;63134;52.020;4.714;2023-07-08T16:05:14;43.10;22.90
22787;DHT22;63134;52.020;4.714;2023-07-08T16:07:59;43.00;23.20
22787;DHT22;63134;52.020;4.714;2023-07-08T16:10:51;43.00;23.30
22787;DHT22;63134;52.020;4.714;2023-07-08T16:13:39;42.90;23.50
22787;DHT22;63134;52.020;4.714;2023-07-08T16:16:26;43.10;23.70
22787;DHT22;63134;52.020;4.714;2023-07-08T16:19:12;43.90;23.40
22787;DHT22;63134;52.020;4.714;2023-07-08T16:22:02;44.30;23.20
22787;DHT22;63134;52.020;4.714;2023-07-08T16:24:48;45.10;22.90
22787;DHT22;63134;52.020;4.714;2023-07-08T16:27:34;45.50;22.50
22787;DHT22;63134;52.020;4.714;2023-07-08T16:30:21;45.10;22.60
22787;DHT22;63134;52.020;4.714;2023-07-08T16:33:07;44.70;22.70
22787;DHT22;63134;52.020;4.714;2023-07-08T16:35:53;44.00;23.10
22787;DHT22;63134;52.020;4.714;2023-07-08T16:38:46;43.60;23.60
22787;DHT22;63134;52.020;4.714;2023-07-08T16:41:34;43.40;23.80
22787;DHT22;63134;52.020;4.714;2023-07-08T16:44:23;44.10;23.80
22787;DHT22;63134;52.020;4.714;2023-07-08T16:47:08;46.10;22.70
22787;DHT22;63134;52.020;4.714;2023-07-08T16:49:54;47.60;21.80
22787;DHT22;63134;52.020;4.714;2023-07-08T16:52:39;46.70;21.60
22787;DHT22;63134;52.020;4.714;2023-07-08T16:55:27;45.20;22.30
22787;DHT22;63134;52.020;4.714;2023-07-08T16:58:13;45.00;22.50
22787;DHT22;63134;52.020;4.714;2023-07-08T17:00:58;45.70;22.40
22787;DHT22;63134;52.020;4.714;2023-07-08T17:03:44;45.20;22.20
22787;DHT22;63134;52.020;4.714;2023-07-08T17:06:30;45.10;22.50
22787;DHT22;63134;52.020;4.714;2023-07-08T17:09:15;44.20;22.90
22787;DHT22;63134;52.020;4.714;2023-07-08T17:12:01;43.20;23.60
22787;DHT22;63134;52.020;4.714;2023-07-08T17:14:47;42.40;24.30
22787;DHT22;63134;52.020;4.714;2023-07-08T17:17:32;42.00;24.90
22787;DHT22;63134;52.020;4.714;2023-07-08T17:20:31;43.30;24.60
22787;DHT22;63134;52.020;4.714;2023-07-08T17:23:20;44.70;24.00
22787;DHT22;63134;52.020;4.714;2023-07-08T17:26:07;46.10;23.10
22787;DHT22;63134;52.020;4.714;2023-07-08T17:28:53;47.00;22.40
22787;DHT22;63134;52.020;4.714;2023-07-08T17:31:39;47.60;22.10
22787;DHT22;63134;52.020;4.714;2023-07-08T17:34:29;48.00;21.60
22787;DHT22;63134;52.020;4.714;2023-07-08T17:37:14;48.20;21.50
22787;DHT22;63134;52.020;4.714;2023-07-08T17:40:00;48.20;21.50
22787;DHT22;63134;52.020;4.714;2023-07-08T17:42:46;48.30;21.90
22787;DHT22;63134;52.020;4.714;2023-07-08T17:45:39;47.90;21.40
22787;DHT22;63134;52.020;4.714;2023-07-08T17:48:26;46.80;22.20
22787;DHT22;63134;52.020;4.714;2023-07-08T17:51:18;45.40;22.40
22787;DHT22;63134;52.020;4.714;2023-07-08T17:54:05;44.20;23.20
22787;DHT22;63134;52.020;4.714;2023-07-08T17:56:51;43.30;23.90
22787;DHT22;63134;52.020;4.714;2023-07-08T17:59:39;42.70;24.30
22787;DHT22;63134;52.020;4.714;2023-07-08T18:02:24;42.50;24.70
22787;DHT22;63134;52.020;4.714;2023-07-08T18:05:13;43.80;24.60
22787;DHT22;63134;52.020;4.714;2023-07-08T18:08:02;44.90;24.10
22787;DHT22;63134;52.020;4.714;2023-07-08T18:10:53;45.40;23.80
22787;DHT22;63134;52.020;4.714;2023-07-08T18:13:38;45.70;24.30
22787;DHT22;63134;52.020;4.714;2023-07-08T18:16:25;46.10;23.80
22787;DHT22;63134;52.020;4.714;2023-07-08T18:19:13;46.20;23.80
22787;DHT22;63134;52.020;4.714;2023-07-08T18:22:02;46.20;23.90
22787;DHT22;63134;52.020;4.714;2023-07-08T18:24:47;46.10;24.00
22787;DHT22;63134;52.020;4.714;2023-07-08T18:27:35;45.90;24.10